ドーハ の空港の天気 - METARとTAF

ドーハ国際空港 ( OTBD / DOH ) - カタール ドーハ
飛行場実況気象(Metar)
観測時間06/18 02:30 AST (06/17 23:30 UTC)
風向・風速北西 7m/s 瞬間風速12m/s
視程10km以上
天気現象
なし
気温39℃
湿度24%
気圧998hPa
METAROTBD 172330Z 32013G23KT CAVOK 39/15 Q0998 NOSIG
過去の天気等 Google飛行場航空写真 Wunderground天気予報

過去48時間のMETAR

飛行場予報(TAF)
発表時間: 6/18 02:02 AST (6/17 23:02 UTC)
予報対象時間: 18日3時 AST ~ 19日9時 AST
風向・風速北 10m/s
視程8000m
なし
18日9時 AST ~ 18日19時 AST に一時的に
風向・風速北 11m/s 瞬間風速 16m/s
視程4000m
天気現象高い風塵
18日21時 AST ~ 18日23時 AST に徐々に
風向・風速北北西 8m/s
TAF OTBD 172302Z 1800/1906 35020KT 8000 NSC
TEMPO 1806/1816 35022G32KT 4000 BLDU
BECMG 1818/1820 33015KT